Terminal Aerodrome Forecast
Issued by NWS

Home | Current Version | Previous Version | Text Only | Print | Product List | Glossary On
Versions: 1 2 3 4 5 6 7 8 9 10 11 12
988
FTUS41 KBTV 011120
TAFMSS
TAF
KMSS 011120Z 0112/0212 06009KT P6SM VCSH BKN070 OVC090
     FM011300 07011KT 6SM -RA BR OVC050
     FM011500 06009KT 6SM -RA BR BKN020 OVC050
     FM011700 06011KT 3SM -RA BR BKN025 OVC050
     FM020000 05008KT 2SM -SHRA BR BKN030 OVC050
     FM020900 02004KT 5SM -SHRA BR BKN025 OVC040=

USA.gov is the U.S. government's official web portal to all federal, state and local government web resources and services.